Time;durP1;ratioP1;P1;durP2;ratioP2;P2;SDS_P1;SDS_P2;PMS_P1;PMS_P2;Temp;Humidity;BMP_temperature;BMP_pressure;BME280_temperature;BME280_humidity;BME280_pressure;Samples;Min_cycle;Max_cycle;Signal;HPM_P1;HPM_P2
2021/08/30 00:02:19;;;;;;;11.45;4.40;;;;;;;;;;4456224;32;20778;-51
2021/08/30 00:04:45;;;;;;;9.82;4.43;;;;;;;;;;4449880;32;20232;-51
2021/08/30 00:07:10;;;;;;;5.18;3.87;;;;;;;;;;4452849;32;20650;-51
2021/08/30 00:09:35;;;;;;;6.75;3.95;;;;;;;;;;4463966;32;20200;-51
2021/08/30 00:12:01;;;;;;;4.45;3.87;;;;;;;;;;4464071;32;20310;-51
2021/08/30 00:14:27;;;;;;;4.65;3.30;;;;;;;;;;4464008;32;20283;-51
2021/08/30 00:16:52;;;;;;;4.57;3.22;;;;;;;;;;4464055;32;20288;-51
2021/08/30 00:19:18;;;;;;;6.65;3.87;;;;;;;;;;4460718;32;20641;-51
2021/08/30 00:21:43;;;;;;;6.97;3.65;;;;;;;;;;4454490;32;20255;-51
2021/08/30 00:24:09;;;;;;;5.62;4.15;;;;;;;;;;4463580;32;20311;-52
2021/08/30 00:26:34;;;;;;;5.75;4.05;;;;;;;;;;4457887;32;20318;-53
2021/08/30 00:29:00;;;;;;;5.30;3.40;;;;;;;;;;4461767;32;20273;-51
2021/08/30 00:31:26;;;;;;;7.75;4.37;;;;;;;;;;4462471;32;20243;-51
2021/08/30 00:33:53;;;;;;;4.50;3.45;;;;;;;;;;4462511;32;20248;-52
2021/08/30 00:36:19;;;;;;;6.28;4.53;;;;;;;;;;4463858;32;20664;-51
2021/08/30 00:38:44;;;;;;;6.72;4.60;;;;;;;;;;4454860;32;20220;-51
2021/08/30 00:41:10;;;;;;;5.82;4.62;;;;;;;;;;4447414;32;20295;-51
2021/08/30 00:43:35;;;;;;;6.32;3.80;;;;;;;;;;4446743;32;20312;-51
2021/08/30 00:46:02;;;;;;;11.88;4.03;;;;;;;;;;4447832;32;20287;-51
2021/08/30 00:48:27;;;;;;;7.12;4.10;;;;;;;;;;4455985;32;20274;-51
2021/08/30 00:50:54;;;;;;;7.07;3.50;;;;;;;;;;4453102;32;20370;-51
2021/08/30 00:53:19;;;;;;;7.60;4.12;;;;;;;;;;4459006;32;20251;-51
2021/08/30 00:55:45;;;;;;;6.07;4.18;;;;;;;;;;4446583;32;20637;-51
2021/08/30 00:58:10;;;;;;;10.90;3.92;;;;;;;;;;4457308;32;20247;-51
2021/08/30 01:00:36;;;;;;;9.40;4.07;;;;;;;;;;4463260;32;20755;-53
2021/08/30 01:03:01;;;;;;;4.35;3.42;;;;;;;;;;4460257;32;20763;-53
2021/08/30 01:05:27;;;;;;;7.43;3.92;;;;;;;;;;4452583;32;20452;-51
2021/08/30 01:08:08;;;;;;;5.40;4.37;;;;;;;;;;4461587;32;20247;-51
2021/08/30 01:10:56;;;;;;;8.63;3.58;;;;;;;;;;4461896;32;20220;-51
2021/08/30 01:13:29;;;;;;;4.60;3.78;;;;;;;;;;4460195;32;20310;-51
2021/08/30 01:15:55;;;;;;;5.82;4.25;;;;;;;;;;4457052;32;20236;-51
2021/08/30 01:18:24;;;;;;;13.98;3.83;;;;;;;;;;4463081;32;20350;-51
2021/08/30 01:21:18;;;;;;;5.57;3.35;;;;;;;;;;4448186;32;20288;-51
2021/08/30 01:23:49;;;;;;;8.82;4.32;;;;;;;;;;4457004;32;20236;-51
2021/08/30 01:26:15;;;;;;;12.20;4.65;;;;;;;;;;4463327;32;20342;-53
2021/08/30 01:28:49;;;;;;;5.30;3.25;;;;;;;;;;4455465;32;20204;-51
2021/08/30 01:31:25;;;;;;;4.68;3.55;;;;;;;;;;4463157;32;20360;-51
2021/08/30 01:33:52;;;;;;;5.93;3.60;;;;;;;;;;4453337;32;20569;-51
2021/08/30 01:36:21;;;;;;;5.35;3.58;;;;;;;;;;4451636;32;20645;-51
2021/08/30 01:38:48;;;;;;;4.68;3.10;;;;;;;;;;4461101;32;20238;-51
2021/08/30 01:41:17;;;;;;;3.72;2.95;;;;;;;;;;4448071;32;20565;-51
2021/08/30 01:43:46;;;;;;;4.10;3.62;;;;;;;;;;4461649;32;20581;-51
2021/08/30 01:46:13;;;;;;;9.35;3.45;;;;;;;;;;4450263;32;20217;-51
2021/08/30 01:48:47;;;;;;;6.00;3.80;;;;;;;;;;4451212;32;20258;-52
2021/08/30 01:51:12;;;;;;;3.75;3.30;;;;;;;;;;4461222;32;20390;-51
2021/08/30 01:53:38;;;;;;;8.15;3.60;;;;;;;;;;4449731;32;20665;-51
2021/08/30 01:56:05;;;;;;;4.97;3.10;;;;;;;;;;4450140;32;20719;-51
2021/08/30 02:00:58;;;;;;;7.28;4.20;;;;;;;;;;4450300;32;20341;-52
2021/08/30 02:03:31;;;;;;;6.00;3.40;;;;;;;;;;4463185;32;20287;-51
2021/08/30 02:05:58;;;;;;;7.03;4.03;;;;;;;;;;4463668;32;20303;-52
2021/08/30 02:08:25;;;;;;;5.18;3.28;;;;;;;;;;4456066;32;20573;-50
2021/08/30 02:10:53;;;;;;;4.80;3.50;;;;;;;;;;4464623;32;20263;-52
2021/08/30 02:13:20;;;;;;;10.27;4.30;;;;;;;;;;4453311;32;20259;-51
2021/08/30 02:15:47;;;;;;;11.45;3.37;;;;;;;;;;4450292;32;20631;-52
2021/08/30 02:18:41;;;;;;;4.60;3.35;;;;;;;;;;4461008;32;20326;-51
2021/08/30 02:21:10;;;;;;;4.57;4.00;;;;;;;;;;4449887;32;20618;-51
2021/08/30 02:23:51;;;;;;;4.30;3.25;;;;;;;;;;4451114;32;20224;-51
2021/08/30 02:26:21;;;;;;;4.82;2.97;;;;;;;;;;4461922;32;20270;-52
2021/08/30 02:28:49;;;;;;;4.12;3.40;;;;;;;;;;4451012;32;20338;-51
2021/08/30 02:31:15;;;;;;;4.65;3.47;;;;;;;;;;4465617;32;20331;-52
2021/08/30 02:33:42;;;;;;;3.90;3.33;;;;;;;;;;4464614;32;20276;-51
2021/08/30 02:36:09;;;;;;;4.65;3.30;;;;;;;;;;4452544;32;20274;-51
2021/08/30 02:38:36;;;;;;;4.80;3.55;;;;;;;;;;4450307;32;20284;-51
2021/08/30 02:41:04;;;;;;;5.03;3.35;;;;;;;;;;4451193;32;20326;-51
2021/08/30 02:43:31;;;;;;;6.43;4.40;;;;;;;;;;4449580;32;20370;-52
2021/08/30 02:45:58;;;;;;;5.10;3.87;;;;;;;;;;4461607;32;20224;-51
2021/08/30 02:48:25;;;;;;;6.25;3.58;;;;;;;;;;4465087;32;20569;-51
2021/08/30 02:50:52;;;;;;;4.65;3.33;;;;;;;;;;4463854;32;20212;-51
2021/08/30 02:53:19;;;;;;;6.05;3.80;;;;;;;;;;4451996;32;20683;-51
2021/08/30 02:55:44;;;;;;;5.75;3.60;;;;;;;;;;4461750;32;20236;-52
2021/08/30 02:58:10;;;;;;;5.60;3.58;;;;;;;;;;4463775;32;20246;-51
2021/08/30 03:00:36;;;;;;;7.85;3.75;;;;;;;;;;4461324;32;20236;-51
2021/08/30 03:03:03;;;;;;;4.07;3.50;;;;;;;;;;4464734;32;20513;-51
2021/08/30 03:05:29;;;;;;;5.55;3.62;;;;;;;;;;4460739;32;20771;-51
2021/08/30 03:07:56;;;;;;;11.30;4.45;;;;;;;;;;4462488;32;20827;-52
2021/08/30 03:10:21;;;;;;;5.72;3.15;;;;;;;;;;4449887;32;20247;-51
2021/08/30 03:12:50;;;;;;;7.45;4.07;;;;;;;;;;4447838;32;20221;-51
2021/08/30 03:15:19;;;;;;;5.37;3.42;;;;;;;;;;4453377;32;20205;-51
2021/08/30 03:17:46;;;;;;;6.10;3.85;;;;;;;;;;4449228;32;20256;-51
2021/08/30 03:20:17;;;;;;;7.90;3.75;;;;;;;;;;4452621;32;20208;-51
2021/08/30 03:22:43;;;;;;;4.70;3.72;;;;;;;;;;4449048;32;20326;-51
2021/08/30 03:25:14;;;;;;;5.90;4.22;;;;;;;;;;4449458;32;20648;-52
2021/08/30 03:27:42;;;;;;;9.55;4.87;;;;;;;;;;4454040;32;20251;-51
2021/08/30 03:30:10;;;;;;;10.55;5.62;;;;;;;;;;4459385;32;20677;-51
2021/08/30 03:32:37;;;;;;;4.97;4.28;;;;;;;;;;4456739;32;20273;-51
2021/08/30 03:35:03;;;;;;;5.25;4.03;;;;;;;;;;4449784;32;20794;-51
2021/08/30 03:37:29;;;;;;;5.30;4.37;;;;;;;;;;4454559;32;20228;-51
2021/08/30 03:39:55;;;;;;;5.93;5.10;;;;;;;;;;4464329;32;20302;-51
2021/08/30 03:42:23;;;;;;;7.28;4.28;;;;;;;;;;4464379;32;20248;-51
2021/08/30 03:44:49;;;;;;;5.35;4.10;;;;;;;;;;4463022;32;20394;-52
2021/08/30 03:47:15;;;;;;;12.55;4.00;;;;;;;;;;4449856;32;20315;-52
2021/08/30 03:49:41;;;;;;;4.87;3.60;;;;;;;;;;4453789;32;20247;-51
2021/08/30 03:52:08;;;;;;;4.25;3.08;;;;;;;;;;4464585;32;20319;-51
2021/08/30 03:54:34;;;;;;;9.95;3.62;;;;;;;;;;4456144;32;20220;-51
2021/08/30 03:57:00;;;;;;;10.32;4.18;;;;;;;;;;4462196;32;20244;-51
2021/08/30 03:59:29;;;;;;;7.57;4.57;;;;;;;;;;4463497;32;20277;-51
2021/08/30 04:01:55;;;;;;;11.40;4.18;;;;;;;;;;4463948;32;20342;-51
2021/08/30 04:04:23;;;;;;;6.18;3.90;;;;;;;;;;4459802;32;20263;-51
2021/08/30 04:06:49;;;;;;;4.57;3.65;;;;;;;;;;4451511;32;20227;-51
2021/08/30 04:09:20;;;;;;;8.02;3.75;;;;;;;;;;4463960;32;20208;-51
2021/08/30 04:11:47;;;;;;;14.98;3.55;;;;;;;;;;4454428;32;20266;-51
2021/08/30 04:14:13;;;;;;;7.05;3.40;;;;;;;;;;4458978;32;20375;-51
2021/08/30 04:16:41;;;;;;;6.95;3.90;;;;;;;;;;4448935;32;20244;-51
2021/08/30 04:19:06;;;;;;;8.35;3.28;;;;;;;;;;4449050;32;20216;-50
2021/08/30 04:21:31;;;;;;;12.07;4.53;;;;;;;;;;4462439;32;20414;-50
2021/08/30 04:23:57;;;;;;;4.87;2.87;;;;;;;;;;4460545;32;20682;-51
2021/08/30 04:26:23;;;;;;;4.30;3.30;;;;;;;;;;4462253;32;20295;-50
2021/08/30 04:28:48;;;;;;;4.85;3.42;;;;;;;;;;4457110;32;20554;-50
2021/08/30 04:31:14;;;;;;;6.47;3.65;;;;;;;;;;4458703;32;20380;-50
2021/08/30 04:33:39;;;;;;;9.40;4.22;;;;;;;;;;4452155;32;20212;-50
2021/08/30 04:36:05;;;;;;;4.57;3.47;;;;;;;;;;4449190;32;20307;-51
2021/08/30 04:38:31;;;;;;;7.55;4.35;;;;;;;;;;4460142;32;20633;-52
2021/08/30 04:40:57;;;;;;;10.18;4.28;;;;;;;;;;4461730;32;20232;-51
2021/08/30 04:43:22;;;;;;;7.00;4.18;;;;;;;;;;4463244;32;20643;-51
2021/08/30 04:45:48;;;;;;;5.12;3.97;;;;;;;;;;4462902;32;20324;-51
2021/08/30 04:48:14;;;;;;;11.68;4.22;;;;;;;;;;4460702;32;20252;-51
2021/08/30 04:50:40;;;;;;;4.37;3.50;;;;;;;;;;4451544;32;20295;-53
2021/08/30 04:53:05;;;;;;;7.25;4.20;;;;;;;;;;4447723;32;20235;-51
2021/08/30 04:55:31;;;;;;;10.98;4.18;;;;;;;;;;4457233;32;20299;-51
2021/08/30 04:57:56;;;;;;;6.57;4.47;;;;;;;;;;4458713;32;20232;-51
2021/08/30 05:00:22;;;;;;;8.35;4.47;;;;;;;;;;4452326;32;20367;-51
2021/08/30 05:02:47;;;;;;;12.20;4.90;;;;;;;;;;4449399;32;20278;-52
2021/08/30 05:05:13;;;;;;;6.57;4.87;;;;;;;;;;4451667;32;20488;-51
2021/08/30 05:07:38;;;;;;;5.60;4.57;;;;;;;;;;4455369;32;20252;-51
2021/08/30 05:10:04;;;;;;;7.35;4.65;;;;;;;;;;4458349;32;20217;-51
2021/08/30 05:12:30;;;;;;;13.98;4.10;;;;;;;;;;4462888;32;20278;-50
2021/08/30 05:14:55;;;;;;;13.70;5.93;;;;;;;;;;4452555;32;20220;-50
2021/08/30 05:17:22;;;;;;;10.48;5.80;;;;;;;;;;4460656;32;20244;-51
2021/08/30 05:19:47;;;;;;;6.30;4.68;;;;;;;;;;4456112;32;20679;-51
2021/08/30 05:22:13;;;;;;;10.60;5.53;;;;;;;;;;4447416;32;20244;-51
2021/08/30 05:24:42;;;;;;;12.57;5.50;;;;;;;;;;4447893;32;20315;-52
2021/08/30 05:27:08;;;;;;;7.47;5.32;;;;;;;;;;4446913;32;20296;-52
2021/08/30 05:29:33;;;;;;;8.85;5.43;;;;;;;;;;4447829;32;20635;-52
2021/08/30 05:31:59;;;;;;;13.18;4.80;;;;;;;;;;4457109;32;20231;-51
2021/08/30 05:34:24;;;;;;;9.90;5.40;;;;;;;;;;4460133;32;20664;-50
2021/08/30 05:36:50;;;;;;;7.20;5.28;;;;;;;;;;4447517;32;20793;-51
2021/08/30 05:39:15;;;;;;;6.60;4.97;;;;;;;;;;4449326;32;20226;-52
2021/08/30 05:41:41;;;;;;;5.62;3.83;;;;;;;;;;4460777;32;20252;-52
2021/08/30 05:44:08;;;;;;;9.73;4.75;;;;;;;;;;4450962;32;20673;-52
2021/08/30 05:46:34;;;;;;;6.82;4.82;;;;;;;;;;4451025;32;20247;-50
2021/08/30 05:49:00;;;;;;;11.38;7.95;;;;;;;;;;4457634;32;20243;-51
2021/08/30 05:51:25;;;;;;;9.95;4.65;;;;;;;;;;4446912;32;20707;-50
2021/08/30 05:53:51;;;;;;;5.03;4.28;;;;;;;;;;4449359;32;20220;-50
2021/08/30 05:56:16;;;;;;;5.95;4.10;;;;;;;;;;4458162;32;20236;-52
2021/08/30 05:58:42;;;;;;;7.68;4.35;;;;;;;;;;4457211;32;20310;-51
2021/08/30 06:01:07;;;;;;;5.53;3.92;;;;;;;;;;4457779;32;20845;-51
2021/08/30 06:03:33;;;;;;;4.55;3.75;;;;;;;;;;4452076;32;20243;-51
2021/08/30 06:05:58;;;;;;;12.82;4.97;;;;;;;;;;4455738;32;20217;-52
2021/08/30 06:08:24;;;;;;;14.18;3.95;;;;;;;;;;4449627;32;20802;-51
2021/08/30 06:10:50;;;;;;;9.43;5.22;;;;;;;;;;4447860;32;20577;-51
2021/08/30 06:13:16;;;;;;;7.22;4.10;;;;;;;;;;4452217;32;20306;-51
2021/08/30 06:15:42;;;;;;;7.07;5.53;;;;;;;;;;4457246;32;20301;-51
2021/08/30 06:18:07;;;;;;;8.50;5.00;;;;;;;;;;4461472;32;20236;-51
2021/08/30 06:20:33;;;;;;;6.22;4.35;;;;;;;;;;4458407;32;20402;-52
2021/08/30 06:22:58;;;;;;;7.15;5.55;;;;;;;;;;4461803;32;20604;-52
2021/08/30 06:25:24;;;;;;;7.82;5.72;;;;;;;;;;4460377;32;20249;-51
2021/08/30 06:27:50;;;;;;;8.32;6.30;;;;;;;;;;4452349;32;20243;-51
2021/08/30 06:30:15;;;;;;;9.40;6.95;;;;;;;;;;4457429;32;20236;-51
2021/08/30 06:32:41;;;;;;;8.13;6.82;;;;;;;;;;4461857;32;20224;-52
2021/08/30 06:35:07;;;;;;;10.75;6.93;;;;;;;;;;4447921;32;20216;-51
2021/08/30 06:37:33;;;;;;;12.37;5.57;;;;;;;;;;4452508;32;20683;-51
2021/08/30 06:39:58;;;;;;;8.45;6.32;;;;;;;;;;4451135;32;20300;-52
2021/08/30 06:42:24;;;;;;;8.77;6.60;;;;;;;;;;4453370;32;20248;-52
2021/08/30 06:44:49;;;;;;;10.77;4.62;;;;;;;;;;4461795;32;20598;-50
2021/08/30 06:47:15;;;;;;;8.35;4.07;;;;;;;;;;4446778;32;20287;-51
2021/08/30 06:49:40;;;;;;;7.07;4.40;;;;;;;;;;4452116;32;20302;-50
2021/08/30 06:52:06;;;;;;;4.70;3.70;;;;;;;;;;4456443;32;20228;-50
2021/08/30 06:54:33;;;;;;;5.22;3.92;;;;;;;;;;4451610;32;20223;-51
2021/08/30 06:56:59;;;;;;;4.90;4.10;;;;;;;;;;4456536;32;20957;-50
2021/08/30 06:59:24;;;;;;;4.85;3.62;;;;;;;;;;4451055;32;20356;-50
2021/08/30 07:01:50;;;;;;;6.45;4.30;;;;;;;;;;4456746;32;20297;-50
2021/08/30 07:04:15;;;;;;;4.12;3.20;;;;;;;;;;4463067;32;20297;-50
2021/08/30 07:06:41;;;;;;;6.10;3.97;;;;;;;;;;4451910;32;20308;-50
2021/08/30 07:09:06;;;;;;;6.75;4.35;;;;;;;;;;4459869;32;20243;-50
2021/08/30 07:11:32;;;;;;;4.55;3.72;;;;;;;;;;4458128;32;20359;-50
2021/08/30 07:13:59;;;;;;;4.20;3.50;;;;;;;;;;4457059;32;20236;-51
2021/08/30 07:16:24;;;;;;;5.97;3.90;;;;;;;;;;4448510;32;20403;-50
2021/08/30 07:18:50;;;;;;;10.95;4.10;;;;;;;;;;4448068;32;20764;-52
2021/08/30 07:21:15;;;;;;;4.75;3.55;;;;;;;;;;4461283;32;20219;-51
2021/08/30 07:23:41;;;;;;;7.15;3.03;;;;;;;;;;4458803;32;20242;-51
2021/08/30 07:26:06;;;;;;;5.18;3.80;;;;;;;;;;4458439;32;20287;-50
2021/08/30 07:28:32;;;;;;;5.32;3.78;;;;;;;;;;4452593;32;20274;-50
2021/08/30 07:30:57;;;;;;;10.48;4.25;;;;;;;;;;4459728;32;20208;-51
2021/08/30 07:33:23;;;;;;;5.30;3.75;;;;;;;;;;4458731;32;20315;-51
2021/08/30 07:35:48;;;;;;;6.22;3.97;;;;;;;;;;4454666;32;20371;-51
2021/08/30 07:38:14;;;;;;;5.50;3.67;;;;;;;;;;4449748;32;20267;-51
2021/08/30 07:40:39;;;;;;;5.87;4.12;;;;;;;;;;4450167;32;20287;-51
2021/08/30 07:43:05;;;;;;;6.75;3.83;;;;;;;;;;4455760;32;20217;-51
2021/08/30 07:45:30;;;;;;;7.90;3.65;;;;;;;;;;4459751;32;20335;-52
2021/08/30 07:47:56;;;;;;;6.18;3.92;;;;;;;;;;4462939;32;20279;-51
2021/08/30 07:50:21;;;;;;;5.90;3.37;;;;;;;;;;4448611;32;20235;-51
2021/08/30 07:52:47;;;;;;;3.90;3.50;;;;;;;;;;4454081;32;20676;-51
2021/08/30 07:55:13;;;;;;;4.35;3.55;;;;;;;;;;4455505;32;20417;-51
2021/08/30 07:57:39;;;;;;;4.72;3.45;;;;;;;;;;4463585;32;20260;-51
2021/08/30 08:00:05;;;;;;;6.32;3.40;;;;;;;;;;4464237;32;20204;-51
2021/08/30 08:02:31;;;;;;;5.60;3.95;;;;;;;;;;4460669;32;20232;-51
2021/08/30 08:04:56;;;;;;;12.90;4.15;;;;;;;;;;4461831;32;20603;-51
2021/08/30 08:07:22;;;;;;;11.52;4.18;;;;;;;;;;4461599;32;20307;-51
2021/08/30 08:09:47;;;;;;;6.10;3.62;;;;;;;;;;4452341;32;20304;-51
2021/08/30 08:12:13;;;;;;;4.78;3.60;;;;;;;;;;4463076;32;20286;-52
2021/08/30 08:14:39;;;;;;;5.07;3.58;;;;;;;;;;4449371;32;20704;-52
2021/08/30 08:17:05;;;;;;;5.57;3.55;;;;;;;;;;4453235;32;20294;-53
2021/08/30 08:19:31;;;;;;;5.93;3.83;;;;;;;;;;4455256;32;20526;-52
2021/08/30 08:21:57;;;;;;;7.90;4.40;;;;;;;;;;4464082;32;20220;-52
2021/08/30 08:24:25;;;;;;;5.87;3.87;;;;;;;;;;4459620;32;20728;-52
2021/08/30 08:26:51;;;;;;;5.62;3.45;;;;;;;;;;4448019;32;20354;-52
2021/08/30 08:29:17;;;;;;;4.80;3.20;;;;;;;;;;4451568;32;20255;-52
2021/08/30 08:31:42;;;;;;;7.70;2.95;;;;;;;;;;4455155;32;20307;-52
2021/08/30 08:34:07;;;;;;;4.15;2.90;;;;;;;;;;4458626;32;20610;-52
2021/08/30 08:36:33;;;;;;;5.05;3.08;;;;;;;;;;4455325;32;20562;-52
2021/08/30 08:38:58;;;;;;;3.67;3.12;;;;;;;;;;4452112;32;20551;-51
2021/08/30 08:41:24;;;;;;;3.78;3.40;;;;;;;;;;4461289;32;20266;-52
2021/08/30 08:43:55;;;;;;;7.82;3.20;;;;;;;;;;4459937;32;20420;-51
2021/08/30 08:46:22;;;;;;;5.57;3.15;;;;;;;;;;4448259;32;20264;-51
2021/08/30 08:48:47;;;;;;;3.47;3.03;;;;;;;;;;4455140;32;20208;-51
2021/08/30 08:51:15;;;;;;;3.55;2.42;;;;;;;;;;4461195;32;20348;-51
2021/08/30 08:53:41;;;;;;;5.35;3.55;;;;;;;;;;4449935;32;20336;-50
2021/08/30 08:56:06;;;;;;;3.60;2.25;;;;;;;;;;4448303;32;20641;-51
2021/08/30 08:58:32;;;;;;;4.70;2.92;;;;;;;;;;4459090;32;20200;-52
2021/08/30 09:01:12;;;;;;;5.68;3.45;;;;;;;;;;4452948;32;20832;-52
2021/08/30 09:03:53;;;;;;;4.12;2.70;;;;;;;;;;4453844;32;20252;-52
2021/08/30 09:06:31;;;;;;;3.10;2.42;;;;;;;;;;4453652;32;20215;-52
2021/08/30 09:09:04;;;;;;;3.42;2.00;;;;;;;;;;4452004;32;20617;-51
2021/08/30 09:11:38;;;;;;;3.15;2.67;;;;;;;;;;4447850;32;20259;-51
2021/08/30 09:14:13;;;;;;;3.87;2.20;;;;;;;;;;4451891;32;20215;-51
2021/08/30 09:16:38;;;;;;;5.22;2.83;;;;;;;;;;4454128;32;20322;-51
2021/08/30 09:19:06;;;;;;;5.15;2.60;;;;;;;;;;4453762;32;20767;-51
2021/08/30 09:21:32;;;;;;;2.53;2.00;;;;;;;;;;4455303;32;20224;-51
2021/08/30 09:24:10;;;;;;;3.28;2.20;;;;;;;;;;4451637;32;20656;-52
2021/08/30 09:26:46;;;;;;;4.97;2.95;;;;;;;;;;4453154;32;20692;-52
2021/08/30 09:29:21;;;;;;;3.35;1.67;;;;;;;;;;4448652;32;20341;-52
2021/08/30 09:31:57;;;;;;;3.65;2.37;;;;;;;;;;4449675;32;20243;-51
2021/08/30 09:34:30;;;;;;;5.25;2.83;;;;;;;;;;4453490;32;20736;-51
2021/08/30 09:36:56;;;;;;;2.58;2.10;;;;;;;;;;4443447;32;20286;-51
2021/08/30 09:39:22;;;;;;;3.65;2.35;;;;;;;;;;4445636;32;20286;-51
2021/08/30 09:41:47;;;;;;;5.78;2.22;;;;;;;;;;4449124;32;20353;-51
2021/08/30 09:44:13;;;;;;;4.28;2.65;;;;;;;;;;4449374;32;20279;-51
2021/08/30 09:46:38;;;;;;;3.33;2.22;;;;;;;;;;4447475;32;20684;-52
2021/08/30 09:49:08;;;;;;;3.03;2.50;;;;;;;;;;4451293;32;20272;-51
2021/08/30 09:51:38;;;;;;;4.82;2.75;;;;;;;;;;4459174;32;20283;-52
2021/08/30 09:54:04;;;;;;;4.37;2.50;;;;;;;;;;4454635;32;20232;-52
2021/08/30 09:56:36;;;;;;;4.15;2.42;;;;;;;;;;4460193;32;20663;-52
2021/08/30 09:59:06;;;;;;;3.50;2.35;;;;;;;;;;4458390;32;20288;-51
2021/08/30 10:01:38;;;;;;;4.65;2.15;;;;;;;;;;4444848;32;20244;-51
2021/08/30 10:04:06;;;;;;;5.85;2.33;;;;;;;;;;4451401;32;20236;-52
2021/08/30 10:06:37;;;;;;;2.30;1.90;;;;;;;;;;4462158;32;20239;-52
2021/08/30 10:09:14;;;;;;;7.43;2.22;;;;;;;;;;4462622;32;20329;-52
2021/08/30 10:11:41;;;;;;;5.18;2.40;;;;;;;;;;4461201;32;20754;-51
2021/08/30 10:14:08;;;;;;;5.53;2.10;;;;;;;;;;4463736;32;20256;-51
2021/08/30 10:16:36;;;;;;;5.90;2.28;;;;;;;;;;4461753;32;20295;-52
2021/08/30 10:19:02;;;;;;;6.78;2.42;;;;;;;;;;4456167;32;20255;-51
2021/08/30 10:21:29;;;;;;;10.90;2.30;;;;;;;;;;4463813;32;20296;-51
2021/08/30 10:23:54;;;;;;;3.92;2.70;;;;;;;;;;4459256;32;20238;-51
2021/08/30 10:26:22;;;;;;;3.00;1.95;;;;;;;;;;4452387;32;20244;-51
2021/08/30 10:28:48;;;;;;;4.43;2.20;;;;;;;;;;4453506;32;20203;-51
2021/08/30 10:31:27;;;;;;;3.75;2.20;;;;;;;;;;4464880;32;20343;-51
2021/08/30 10:33:58;;;;;;;4.47;1.98;;;;;;;;;;4450558;32;20287;-52
2021/08/30 10:36:29;;;;;;;4.95;2.28;;;;;;;;;;4449655;32;20240;-52
2021/08/30 10:38:57;;;;;;;2.90;1.92;;;;;;;;;;4449789;32;20243;-52
2021/08/30 10:41:28;;;;;;;3.72;2.70;;;;;;;;;;4454531;32;20232;-52
2021/08/30 10:44:10;;;;;;;3.80;1.80;;;;;;;;;;4464828;32;20208;-52
2021/08/30 10:46:50;;;;;;;3.03;1.95;;;;;;;;;;4464635;32;20303;-52
2021/08/30 10:49:20;;;;;;;4.78;2.17;;;;;;;;;;4464126;32;20207;-52
2021/08/30 10:51:46;;;;;;;7.93;5.72;;;;;;;;;;4464992;32;20280;-52
2021/08/30 10:54:17;;;;;;;6.53;2.10;;;;;;;;;;4465874;32;20312;-52
2021/08/30 10:56:58;;;;;;;2.70;1.90;;;;;;;;;;4466008;32;20414;-52
2021/08/30 10:59:29;;;;;;;4.30;2.30;;;;;;;;;;4465422;32;20212;-52
2021/08/30 11:01:59;;;;;;;2.65;1.83;;;;;;;;;;4466126;32;20502;-52
2021/08/30 11:04:32;;;;;;;3.87;1.83;;;;;;;;;;4464083;32;20276;-52
2021/08/30 11:06:59;;;;;;;2.40;1.80;;;;;;;;;;4465077;32;20371;-52
2021/08/30 11:09:24;;;;;;;5.47;1.90;;;;;;;;;;4464604;32;20319;-52
2021/08/30 11:11:51;;;;;;;4.20;2.42;;;;;;;;;;4464884;32;20269;-52
2021/08/30 11:14:17;;;;;;;2.90;1.73;;;;;;;;;;4465121;32;20234;-52
2021/08/30 11:16:42;;;;;;;4.18;2.00;;;;;;;;;;4465943;32;20300;-52
2021/08/30 11:19:13;;;;;;;3.72;2.20;;;;;;;;;;4460568;32;20236;-52
2021/08/30 11:21:40;;;;;;;2.40;1.90;;;;;;;;;;4449166;32;20283;-53
2021/08/30 11:24:21;;;;;;;3.03;1.75;;;;;;;;;;4454905;32;20211;-52
2021/08/30 11:26:47;;;;;;;4.32;1.98;;;;;;;;;;4462573;32;20341;-52
2021/08/30 11:29:12;;;;;;;2.20;1.80;;;;;;;;;;4461653;32;20322;-52
2021/08/30 11:31:41;;;;;;;3.05;1.65;;;;;;;;;;4465287;32;20319;-53
2021/08/30 11:34:23;;;;;;;4.30;2.10;;;;;;;;;;4465044;32;20196;-53
2021/08/30 11:36:50;;;;;;;2.72;1.80;;;;;;;;;;4457137;32;20270;-52
2021/08/30 11:39:17;;;;;;;2.15;1.62;;;;;;;;;;4455416;32;20398;-52
2021/08/30 11:41:44;;;;;;;3.83;2.10;;;;;;;;;;4456240;32;20339;-52
2021/08/30 11:44:10;;;;;;;2.53;2.15;;;;;;;;;;4457496;32;20228;-52
2021/08/30 11:47:08;;;;;;;1.85;1.60;;;;;;;;;;4456988;32;20383;-53
2021/08/30 11:49:38;;;;;;;5.03;3.03;;;;;;;;;;4448633;32;20434;-52
2021/08/30 11:52:05;;;;;;;2.95;2.28;;;;;;;;;;4453358;32;20236;-52
2021/08/30 11:54:33;;;;;;;4.00;2.05;;;;;;;;;;4457017;32;20236;-50
2021/08/30 11:57:06;;;;;;;3.72;2.40;;;;;;;;;;4456051;32;20220;-51
2021/08/30 11:59:33;;;;;;;3.22;1.98;;;;;;;;;;4460826;32;20283;-52
2021/08/30 12:02:03;;;;;;;2.20;2.00;;;;;;;;;;4464725;32;20231;-52
2021/08/30 12:04:37;;;;;;;2.97;2.53;;;;;;;;;;4458852;32;20315;-52
2021/08/30 12:07:09;;;;;;;3.72;2.30;;;;;;;;;;4448256;32;20264;-52
2021/08/30 12:09:47;;;;;;;3.62;2.22;;;;;;;;;;4449021;32;20201;-52
2021/08/30 12:12:17;;;;;;;2.40;1.92;;;;;;;;;;4448103;32;20521;-53
2021/08/30 12:15:05;;;;;;;3.78;2.03;;;;;;;;;;4449755;32;20640;-53
2021/08/30 12:17:37;;;;;;;4.50;2.37;;;;;;;;;;4450086;32;20263;-52
2021/08/30 12:20:11;;;;;;;2.97;1.67;;;;;;;;;;4457420;32;20333;-52
2021/08/30 12:22:39;;;;;;;4.43;1.90;;;;;;;;;;4464602;32;20239;-53
2021/08/30 12:25:16;;;;;;;1.73;1.58;;;;;;;;;;4462935;32;20488;-52
2021/08/30 12:27:43;;;;;;;3.90;2.70;;;;;;;;;;4462353;32;20232;-52
2021/08/30 12:30:14;;;;;;;4.07;1.75;;;;;;;;;;4462752;32;20572;-52
2021/08/30 12:32:50;;;;;;;4.47;2.40;;;;;;;;;;4464108;32;20240;-52
2021/08/30 12:35:25;;;;;;;3.22;2.08;;;;;;;;;;4463286;32;20208;-53
2021/08/30 12:37:52;;;;;;;2.65;2.17;;;;;;;;;;4457407;32;20330;-53
2021/08/30 12:40:18;;;;;;;3.72;2.33;;;;;;;;;;4446657;32;20234;-53
2021/08/30 12:42:44;;;;;;;3.05;1.95;;;;;;;;;;4448109;32;20255;-52
2021/08/30 12:45:10;;;;;;;4.40;2.12;;;;;;;;;;4455087;32;20215;-53
2021/08/30 12:47:36;;;;;;;3.40;2.40;;;;;;;;;;4462688;32;20212;-53
2021/08/30 12:50:02;;;;;;;2.25;1.60;;;;;;;;;;4463401;32;20254;-53
2021/08/30 12:52:28;;;;;;;3.17;2.17;;;;;;;;;;4463580;32;20274;-53
2021/08/30 12:54:53;;;;;;;2.53;1.90;;;;;;;;;;4463454;32;20228;-53
2021/08/30 12:57:20;;;;;;;2.65;1.98;;;;;;;;;;4463308;32;20224;-53
2021/08/30 12:59:46;;;;;;;3.17;1.98;;;;;;;;;;4462834;32;20306;-53
2021/08/30 13:02:12;;;;;;;3.22;1.77;;;;;;;;;;4458050;32;20263;-53
2021/08/30 13:04:38;;;;;;;5.82;2.05;;;;;;;;;;4460883;32;20405;-54
2021/08/30 13:07:03;;;;;;;3.90;1.62;;;;;;;;;;4464138;32;20248;-52
2021/08/30 13:09:29;;;;;;;2.45;1.87;;;;;;;;;;4460777;32;20232;-52
2021/08/30 13:11:54;;;;;;;2.22;2.03;;;;;;;;;;4462366;32;20602;-52
2021/08/30 13:14:20;;;;;;;2.55;1.58;;;;;;;;;;4462783;32;20220;-52
2021/08/30 13:16:45;;;;;;;5.45;2.20;;;;;;;;;;4461395;32;20252;-52
2021/08/30 13:19:11;;;;;;;4.15;2.05;;;;;;;;;;4453831;32;20236;-53
2021/08/30 13:21:36;;;;;;;3.90;1.73;;;;;;;;;;4449844;32;20278;-52
2021/08/30 13:24:02;;;;;;;2.35;1.70;;;;;;;;;;4446037;32;20399;-52
2021/08/30 13:26:30;;;;;;;1.90;1.58;;;;;;;;;;4447766;32;20232;-51
2021/08/30 13:28:56;;;;;;;2.75;1.90;;;;;;;;;;4448102;32;20220;-52
2021/08/30 13:31:21;;;;;;;3.85;2.45;;;;;;;;;;4461595;32;20750;-52
2021/08/30 13:33:46;;;;;;;2.47;1.37;;;;;;;;;;4463913;32;20593;-52
2021/08/30 13:36:12;;;;;;;2.80;1.75;;;;;;;;;;4463781;32;20348;-51
2021/08/30 13:38:37;;;;;;;5.87;1.85;;;;;;;;;;4451537;32;20211;-52
2021/08/30 13:41:03;;;;;;;2.53;1.70;;;;;;;;;;4452408;32;20291;-53
2021/08/30 13:43:28;;;;;;;6.25;1.30;;;;;;;;;;4462183;32;20259;-52
2021/08/30 13:45:54;;;;;;;9.23;1.27;;;;;;;;;;4461784;32;20228;-54
2021/08/30 13:48:19;;;;;;;2.40;1.37;;;;;;;;;;4448747;32;21120;-52
2021/08/30 13:50:45;;;;;;;2.20;1.70;;;;;;;;;;4457788;32;20606;-53
2021/08/30 13:53:10;;;;;;;3.12;2.03;;;;;;;;;;4466250;32;20298;-52
2021/08/30 13:55:36;;;;;;;3.28;1.98;;;;;;;;;;4467068;32;20220;-52
2021/08/30 13:58:01;;;;;;;3.33;2.03;;;;;;;;;;4463122;32;20216;-52
2021/08/30 14:00:27;;;;;;;4.00;2.10;;;;;;;;;;4465939;32;20207;-52
2021/08/30 14:02:53;;;;;;;5.65;2.17;;;;;;;;;;4451455;32;20353;-53
2021/08/30 14:05:19;;;;;;;2.60;1.80;;;;;;;;;;4450545;32;20243;-52
2021/08/30 14:07:44;;;;;;;2.25;1.85;;;;;;;;;;4450049;32;20256;-52
2021/08/30 14:10:11;;;;;;;4.50;1.90;;;;;;;;;;4457400;32;20220;-52
2021/08/30 14:12:38;;;;;;;2.97;1.83;;;;;;;;;;4465827;32;20320;-52
2021/08/30 14:15:05;;;;;;;2.62;2.00;;;;;;;;;;4463357;32;20196;-52
2021/08/30 14:17:31;;;;;;;2.75;1.35;;;;;;;;;;4464380;32;20579;-52
2021/08/30 14:19:57;;;;;;;6.03;1.80;;;;;;;;;;4462312;32;20231;-52
2021/08/30 14:22:22;;;;;;;2.72;1.73;;;;;;;;;;4455104;32;20345;-53
2021/08/30 14:24:50;;;;;;;3.42;2.20;;;;;;;;;;4466116;32;20577;-53
2021/08/30 14:27:17;;;;;;;4.90;1.62;;;;;;;;;;4465509;32;20574;-53
2021/08/30 14:29:44;;;;;;;3.67;1.45;;;;;;;;;;4463206;32;20812;-52
2021/08/30 14:32:09;;;;;;;6.03;1.73;;;;;;;;;;4465832;32;20287;-51
2021/08/30 14:34:35;;;;;;;2.60;2.05;;;;;;;;;;4464202;32;20636;-51
2021/08/30 14:37:00;;;;;;;3.83;1.73;;;;;;;;;;4462602;32;20226;-52
2021/08/30 14:39:26;;;;;;;4.05;1.73;;;;;;;;;;4453177;32;20243;-52
2021/08/30 14:41:51;;;;;;;1.85;1.52;;;;;;;;;;4463349;32;20224;-52
2021/08/30 14:44:17;;;;;;;1.75;1.40;;;;;;;;;;4462797;32;20568;-51
2021/08/30 14:46:42;;;;;;;2.47;1.67;;;;;;;;;;4463322;32;20760;-52